sensor_id;sensor_type;location;lat;lon;timestamp;temperature;humidity
2441;DHT22;1231;53.988;9.470;2022-12-05T00:02:08;7.00;91.40
2441;DHT22;1231;53.988;9.470;2022-12-05T00:04:39;7.00;91.30
2441;DHT22;1231;53.988;9.470;2022-12-05T00:07:09;6.90;91.10
2441;DHT22;1231;53.988;9.470;2022-12-05T00:09:40;6.90;91.40
2441;DHT22;1231;53.988;9.470;2022-12-05T00:12:11;6.90;91.40
2441;DHT22;1231;53.988;9.470;2022-12-05T00:14:41;6.90;91.20
2441;DHT22;1231;53.988;9.470;2022-12-05T00:17:12;6.80;91.40
2441;DHT22;1231;53.988;9.470;2022-12-05T00:19:42;6.80;91.70
2441;DHT22;1231;53.988;9.470;2022-12-05T00:22:13;6.80;91.80
2441;DHT22;1231;53.988;9.470;2022-12-05T00:24:44;6.80;91.90
2441;DHT22;1231;53.988;9.470;2022-12-05T00:27:14;6.80;91.60
2441;DHT22;1231;53.988;9.470;2022-12-05T00:29:45;6.70;92.00
2441;DHT22;1231;53.988;9.470;2022-12-05T00:32:15;6.70;92.10
2441;DHT22;1231;53.988;9.470;2022-12-05T00:34:46;6.70;92.30
2441;DHT22;1231;53.988;9.470;2022-12-05T00:37:16;6.60;92.20
2441;DHT22;1231;53.988;9.470;2022-12-05T00:39:47;6.60;92.20
2441;DHT22;1231;53.988;9.470;2022-12-05T00:42:18;6.70;92.30
2441;DHT22;1231;53.988;9.470;2022-12-05T00:44:49;6.70;92.40
2441;DHT22;1231;53.988;9.470;2022-12-05T00:47:19;6.70;92.30
2441;DHT22;1231;53.988;9.470;2022-12-05T00:49:50;6.70;92.30
2441;DHT22;1231;53.988;9.470;2022-12-05T00:52:20;6.70;92.50
2441;DHT22;1231;53.988;9.470;2022-12-05T00:54:51;6.70;92.30
2441;DHT22;1231;53.988;9.470;2022-12-05T00:57:22;6.70;92.40
2441;DHT22;1231;53.988;9.470;2022-12-05T00:59:52;6.60;92.50
2441;DHT22;1231;53.988;9.470;2022-12-05T01:02:23;6.70;92.40
2441;DHT22;1231;53.988;9.470;2022-12-05T01:04:53;6.60;92.70
2441;DHT22;1231;53.988;9.470;2022-12-05T01:07:24;6.70;92.60
2441;DHT22;1231;53.988;9.470;2022-12-05T01:09:54;6.70;92.50
2441;DHT22;1231;53.988;9.470;2022-12-05T01:12:25;6.60;92.50
2441;DHT22;1231;53.988;9.470;2022-12-05T01:14:57;6.70;92.80
2441;DHT22;1231;53.988;9.470;2022-12-05T01:17:27;6.60;92.60
2441;DHT22;1231;53.988;9.470;2022-12-05T01:19:58;6.60;92.80
2441;DHT22;1231;53.988;9.470;2022-12-05T01:22:29;6.60;93.00
2441;DHT22;1231;53.988;9.470;2022-12-05T01:24:59;6.60;93.00
2441;DHT22;1231;53.988;9.470;2022-12-05T01:27:30;6.60;93.20
2441;DHT22;1231;53.988;9.470;2022-12-05T01:30:00;6.60;93.10
2441;DHT22;1231;53.988;9.470;2022-12-05T01:32:31;6.60;93.20
2441;DHT22;1231;53.988;9.470;2022-12-05T01:35:02;6.60;93.20
2441;DHT22;1231;53.988;9.470;2022-12-05T01:37:33;6.60;93.00
2441;DHT22;1231;53.988;9.470;2022-12-05T01:40:04;6.60;93.00
2441;DHT22;1231;53.988;9.470;2022-12-05T01:42:35;6.70;92.90
2441;DHT22;1231;53.988;9.470;2022-12-05T01:45:13;6.60;92.90
2441;DHT22;1231;53.988;9.470;2022-12-05T01:47:44;6.60;93.00
2441;DHT22;1231;53.988;9.470;2022-12-05T01:50:15;6.60;92.90
2441;DHT22;1231;53.988;9.470;2022-12-05T01:52:46;6.60;93.00
2441;DHT22;1231;53.988;9.470;2022-12-05T01:55:17;6.60;92.90
2441;DHT22;1231;53.988;9.470;2022-12-05T01:57:48;6.60;92.90
2441;DHT22;1231;53.988;9.470;2022-12-05T02:00:20;6.50;93.10
2441;DHT22;1231;53.988;9.470;2022-12-05T02:02:56;6.60;93.00
2441;DHT22;1231;53.988;9.470;2022-12-05T02:05:32;6.60;92.90
2441;DHT22;1231;53.988;9.470;2022-12-05T02:08:06;6.60;92.90
2441;DHT22;1231;53.988;9.470;2022-12-05T02:10:47;6.60;92.90
2441;DHT22;1231;53.988;9.470;2022-12-05T02:16:10;6.60;92.90
2441;DHT22;1231;53.988;9.470;2022-12-05T02:22:08;6.60;92.80
2441;DHT22;1231;53.988;9.470;2022-12-05T02:28:19;6.60;92.50
2441;DHT22;1231;53.988;9.470;2022-12-05T02:37:21;6.70;92.50
2441;DHT22;1231;53.988;9.470;2022-12-05T02:40:13;6.70;92.50
2441;DHT22;1231;53.988;9.470;2022-12-05T02:42:59;6.70;92.40
2441;DHT22;1231;53.988;9.470;2022-12-05T02:45:33;6.60;92.50
2441;DHT22;1231;53.988;9.470;2022-12-05T02:48:05;6.70;92.50
2441;DHT22;1231;53.988;9.470;2022-12-05T02:50:36;6.70;92.30
2441;DHT22;1231;53.988;9.470;2022-12-05T02:53:13;6.70;92.30
2441;DHT22;1231;53.988;9.470;2022-12-05T02:55:45;6.70;92.10
2441;DHT22;1231;53.988;9.470;2022-12-05T02:58:22;6.70;92.10
2441;DHT22;1231;53.988;9.470;2022-12-05T03:00:55;6.70;92.10
2441;DHT22;1231;53.988;9.470;2022-12-05T03:03:26;6.70;92.40
2441;DHT22;1231;53.988;9.470;2022-12-05T03:06:08;6.70;92.10
2441;DHT22;1231;53.988;9.470;2022-12-05T03:11:54;6.80;91.90
2441;DHT22;1231;53.988;9.470;2022-12-05T03:14:31;6.70;91.70
2441;DHT22;1231;53.988;9.470;2022-12-05T03:17:06;6.80;91.70
2441;DHT22;1231;53.988;9.470;2022-12-05T03:22:45;6.90;91.30
2441;DHT22;1231;53.988;9.470;2022-12-05T03:25:18;6.90;90.90
2441;DHT22;1231;53.988;9.470;2022-12-05T03:28:06;6.80;91.00
2441;DHT22;1231;53.988;9.470;2022-12-05T03:30:41;6.90;90.90
2441;DHT22;1231;53.988;9.470;2022-12-05T03:33:18;6.90;90.90
2441;DHT22;1231;53.988;9.470;2022-12-05T03:36:00;6.90;91.00
2441;DHT22;1231;53.988;9.470;2022-12-05T03:38:32;6.90;90.90
2441;DHT22;1231;53.988;9.470;2022-12-05T03:41:18;6.80;90.90
2441;DHT22;1231;53.988;9.470;2022-12-05T03:44:16;6.80;91.10
2441;DHT22;1231;53.988;9.470;2022-12-05T03:49:36;6.80;91.00
2441;DHT22;1231;53.988;9.470;2022-12-05T03:52:17;6.80;91.00
2441;DHT22;1231;53.988;9.470;2022-12-05T03:54:55;6.70;91.30
2441;DHT22;1231;53.988;9.470;2022-12-05T03:57:32;6.70;91.40
2441;DHT22;1231;53.988;9.470;2022-12-05T04:00:19;6.70;91.60
2441;DHT22;1231;53.988;9.470;2022-12-05T04:05:51;6.70;91.50
2441;DHT22;1231;53.988;9.470;2022-12-05T04:08:30;6.60;91.60
2441;DHT22;1231;53.988;9.470;2022-12-05T04:11:05;6.60;91.70
2441;DHT22;1231;53.988;9.470;2022-12-05T04:16:28;6.60;91.70
2441;DHT22;1231;53.988;9.470;2022-12-05T04:19:54;6.60;91.80
2441;DHT22;1231;53.988;9.470;2022-12-05T04:22:44;6.60;91.80
2441;DHT22;1231;53.988;9.470;2022-12-05T04:25:16;6.50;91.90
2441;DHT22;1231;53.988;9.470;2022-12-05T04:33:51;6.50;92.00
2441;DHT22;1231;53.988;9.470;2022-12-05T04:36:39;6.40;92.40
2441;DHT22;1231;53.988;9.470;2022-12-05T04:39:17;6.50;92.30
2441;DHT22;1231;53.988;9.470;2022-12-05T04:41:56;6.50;92.30
2441;DHT22;1231;53.988;9.470;2022-12-05T04:44:34;6.50;92.30
2441;DHT22;1231;53.988;9.470;2022-12-05T04:47:08;6.40;92.30
2441;DHT22;1231;53.988;9.470;2022-12-05T04:49:42;6.40;92.50
2441;DHT22;1231;53.988;9.470;2022-12-05T04:52:14;6.50;92.30
2441;DHT22;1231;53.988;9.470;2022-12-05T04:54:53;6.40;92.30
2441;DHT22;1231;53.988;9.470;2022-12-05T04:58:11;6.40;92.30
2441;DHT22;1231;53.988;9.470;2022-12-05T05:00:22;6.50;92.20
2441;DHT22;1231;53.988;9.470;2022-12-05T05:05:36;6.50;92.20
2441;DHT22;1231;53.988;9.470;2022-12-05T05:08:16;6.50;92.10
2441;DHT22;1231;53.988;9.470;2022-12-05T05:10:59;6.50;92.10
2441;DHT22;1231;53.988;9.470;2022-12-05T05:13:31;6.50;92.20
2441;DHT22;1231;53.988;9.470;2022-12-05T05:16:02;6.40;92.30
2441;DHT22;1231;53.988;9.470;2022-12-05T05:18:33;6.40;92.40
2441;DHT22;1231;53.988;9.470;2022-12-05T05:21:03;6.40;92.40
2441;DHT22;1231;53.988;9.470;2022-12-05T05:23:34;6.40;92.30
2441;DHT22;1231;53.988;9.470;2022-12-05T05:26:04;6.40;92.20
2441;DHT22;1231;53.988;9.470;2022-12-05T05:28:35;6.40;92.40
2441;DHT22;1231;53.988;9.470;2022-12-05T05:31:06;6.40;92.40
2441;DHT22;1231;53.988;9.470;2022-12-05T05:33:36;6.40;92.30
2441;DHT22;1231;53.988;9.470;2022-12-05T05:36:12;6.40;92.40
2441;DHT22;1231;53.988;9.470;2022-12-05T05:38:45;6.40;92.40
2441;DHT22;1231;53.988;9.470;2022-12-05T05:41:17;6.40;92.30
2441;DHT22;1231;53.988;9.470;2022-12-05T05:43:48;6.40;92.50
2441;DHT22;1231;53.988;9.470;2022-12-05T05:46:22;6.30;92.60
2441;DHT22;1231;53.988;9.470;2022-12-05T05:48:53;6.30;92.60
2441;DHT22;1231;53.988;9.470;2022-12-05T05:51:23;6.30;92.70
2441;DHT22;1231;53.988;9.470;2022-12-05T05:53:59;6.30;92.70
2441;DHT22;1231;53.988;9.470;2022-12-05T05:56:29;6.30;92.60
2441;DHT22;1231;53.988;9.470;2022-12-05T05:59:01;6.30;92.60
2441;DHT22;1231;53.988;9.470;2022-12-05T06:01:32;6.40;92.60
2441;DHT22;1231;53.988;9.470;2022-12-05T06:04:03;6.30;92.70
2441;DHT22;1231;53.988;9.470;2022-12-05T06:06:33;6.30;92.70
2441;DHT22;1231;53.988;9.470;2022-12-05T06:09:06;6.30;92.80
2441;DHT22;1231;53.988;9.470;2022-12-05T06:11:36;6.40;92.70
2441;DHT22;1231;53.988;9.470;2022-12-05T06:14:08;6.40;92.50
2441;DHT22;1231;53.988;9.470;2022-12-05T06:16:38;6.40;92.30
2441;DHT22;1231;53.988;9.470;2022-12-05T06:19:09;6.40;92.30
2441;DHT22;1231;53.988;9.470;2022-12-05T06:21:39;6.30;92.40
2441;DHT22;1231;53.988;9.470;2022-12-05T06:24:10;6.30;92.60
2441;DHT22;1231;53.988;9.470;2022-12-05T06:26:40;6.40;92.40
2441;DHT22;1231;53.988;9.470;2022-12-05T06:29:11;6.40;92.40
2441;DHT22;1231;53.988;9.470;2022-12-05T06:31:42;6.30;92.60
2441;DHT22;1231;53.988;9.470;2022-12-05T06:34:12;6.30;92.70
2441;DHT22;1231;53.988;9.470;2022-12-05T06:36:43;6.30;92.80
2441;DHT22;1231;53.988;9.470;2022-12-05T06:39:14;6.30;92.70
2441;DHT22;1231;53.988;9.470;2022-12-05T06:41:44;6.30;92.70
2441;DHT22;1231;53.988;9.470;2022-12-05T06:44:15;6.40;92.70
2441;DHT22;1231;53.988;9.470;2022-12-05T06:46:46;6.40;92.50
2441;DHT22;1231;53.988;9.470;2022-12-05T06:49:16;6.40;92.50
2441;DHT22;1231;53.988;9.470;2022-12-05T06:51:47;6.30;92.80
2441;DHT22;1231;53.988;9.470;2022-12-05T06:54:17;6.30;92.80
2441;DHT22;1231;53.988;9.470;2022-12-05T06:56:48;6.40;92.80
2441;DHT22;1231;53.988;9.470;2022-12-05T06:59:19;6.30;92.90
2441;DHT22;1231;53.988;9.470;2022-12-05T07:01:49;6.40;92.70
2441;DHT22;1231;53.988;9.470;2022-12-05T07:04:22;6.40;92.70
2441;DHT22;1231;53.988;9.470;2022-12-05T07:06:54;6.40;92.70
2441;DHT22;1231;53.988;9.470;2022-12-05T07:09:25;6.40;92.70
2441;DHT22;1231;53.988;9.470;2022-12-05T07:12:17;6.40;92.60
2441;DHT22;1231;53.988;9.470;2022-12-05T07:14:48;6.40;92.60
2441;DHT22;1231;53.988;9.470;2022-12-05T07:17:20;6.40;92.80
2441;DHT22;1231;53.988;9.470;2022-12-05T07:19:51;6.40;92.70
2441;DHT22;1231;53.988;9.470;2022-12-05T07:22:22;6.40;92.70
2441;DHT22;1231;53.988;9.470;2022-12-05T07:24:53;6.40;92.70
2441;DHT22;1231;53.988;9.470;2022-12-05T07:27:23;6.40;92.70
2441;DHT22;1231;53.988;9.470;2022-12-05T07:29:54;6.40;92.70
2441;DHT22;1231;53.988;9.470;2022-12-05T07:32:25;6.50;92.70
2441;DHT22;1231;53.988;9.470;2022-12-05T07:34:56;6.40;92.60
2441;DHT22;1231;53.988;9.470;2022-12-05T07:37:27;6.40;92.80
2441;DHT22;1231;53.988;9.470;2022-12-05T07:39:57;6.40;92.80
2441;DHT22;1231;53.988;9.470;2022-12-05T07:42:28;6.40;92.70
2441;DHT22;1231;53.988;9.470;2022-12-05T07:44:58;6.40;92.80
2441;DHT22;1231;53.988;9.470;2022-12-05T07:47:29;6.40;92.90
2441;DHT22;1231;53.988;9.470;2022-12-05T07:50:00;6.40;93.20
2441;DHT22;1231;53.988;9.470;2022-12-05T07:52:31;6.50;92.90
2441;DHT22;1231;53.988;9.470;2022-12-05T07:55:01;6.40;92.80
2441;DHT22;1231;53.988;9.470;2022-12-05T07:57:32;6.40;92.90
2441;DHT22;1231;53.988;9.470;2022-12-05T08:00:03;6.40;92.90
2441;DHT22;1231;53.988;9.470;2022-12-05T08:02:33;6.50;93.10
2441;DHT22;1231;53.988;9.470;2022-12-05T08:05:04;6.50;92.80
2441;DHT22;1231;53.988;9.470;2022-12-05T08:07:35;6.50;92.70
2441;DHT22;1231;53.988;9.470;2022-12-05T08:10:07;6.50;92.80
2441;DHT22;1231;53.988;9.470;2022-12-05T08:12:37;6.50;92.60
2441;DHT22;1231;53.988;9.470;2022-12-05T08:15:09;6.50;92.90
2441;DHT22;1231;53.988;9.470;2022-12-05T08:17:40;6.60;92.80
2441;DHT22;1231;53.988;9.470;2022-12-05T08:20:11;6.60;92.70
2441;DHT22;1231;53.988;9.470;2022-12-05T08:22:41;6.60;92.70
2441;DHT22;1231;53.988;9.470;2022-12-05T08:25:12;6.60;92.60
2441;DHT22;1231;53.988;9.470;2022-12-05T08:27:43;6.60;92.70
2441;DHT22;1231;53.988;9.470;2022-12-05T08:30:13;6.60;92.80
2441;DHT22;1231;53.988;9.470;2022-12-05T08:32:44;6.60;92.80
2441;DHT22;1231;53.988;9.470;2022-12-05T08:35:14;6.60;92.70
2441;DHT22;1231;53.988;9.470;2022-12-05T08:37:45;6.70;92.80
2441;DHT22;1231;53.988;9.470;2022-12-05T08:40:16;6.70;92.60
2441;DHT22;1231;53.988;9.470;2022-12-05T08:42:46;6.70;92.60
2441;DHT22;1231;53.988;9.470;2022-12-05T08:45:17;6.70;92.70
2441;DHT22;1231;53.988;9.470;2022-12-05T08:47:48;6.70;92.60
2441;DHT22;1231;53.988;9.470;2022-12-05T08:50:18;6.70;92.80
2441;DHT22;1231;53.988;9.470;2022-12-05T08:52:49;6.60;92.80
2441;DHT22;1231;53.988;9.470;2022-12-05T08:55:19;6.60;93.00
2441;DHT22;1231;53.988;9.470;2022-12-05T08:57:50;6.60;93.00
2441;DHT22;1231;53.988;9.470;2022-12-05T09:00:20;6.60;93.00
2441;DHT22;1231;53.988;9.470;2022-12-05T09:02:51;6.70;92.90
2441;DHT22;1231;53.988;9.470;2022-12-05T09:05:22;6.70;92.90
2441;DHT22;1231;53.988;9.470;2022-12-05T09:07:53;6.70;92.80
2441;DHT22;1231;53.988;9.470;2022-12-05T09:10:24;6.70;92.90
2441;DHT22;1231;53.988;9.470;2022-12-05T09:12:55;6.70;92.90
2441;DHT22;1231;53.988;9.470;2022-12-05T09:15:25;6.70;92.90
2441;DHT22;1231;53.988;9.470;2022-12-05T09:17:56;6.70;92.90
2441;DHT22;1231;53.988;9.470;2022-12-05T09:20:26;6.80;92.90
2441;DHT22;1231;53.988;9.470;2022-12-05T09:22:57;6.80;92.80
2441;DHT22;1231;53.988;9.470;2022-12-05T09:25:27;6.80;92.70
2441;DHT22;1231;53.988;9.470;2022-12-05T09:27:58;6.80;92.70
2441;DHT22;1231;53.988;9.470;2022-12-05T09:30:28;6.80;92.80
2441;DHT22;1231;53.988;9.470;2022-12-05T09:32:59;6.80;92.80
2441;DHT22;1231;53.988;9.470;2022-12-05T09:35:29;6.80;92.90
2441;DHT22;1231;53.988;9.470;2022-12-05T09:38:00;6.80;92.90
2441;DHT22;1231;53.988;9.470;2022-12-05T09:40:31;6.80;92.90
2441;DHT22;1231;53.988;9.470;2022-12-05T09:43:05;6.80;92.90
2441;DHT22;1231;53.988;9.470;2022-12-05T09:45:39;6.90;92.80
2441;DHT22;1231;53.988;9.470;2022-12-05T09:48:15;6.90;92.70
2441;DHT22;1231;53.988;9.470;2022-12-05T09:50:53;6.90;92.80
2441;DHT22;1231;53.988;9.470;2022-12-05T09:53:34;6.90;92.70
2441;DHT22;1231;53.988;9.470;2022-12-05T09:58:48;6.90;92.70
2441;DHT22;1231;53.988;9.470;2022-12-05T10:07:39;6.90;92.50
2441;DHT22;1231;53.988;9.470;2022-12-05T10:10:38;6.90;92.50
2441;DHT22;1231;53.988;9.470;2022-12-05T10:13:34;6.90;92.50
2441;DHT22;1231;53.988;9.470;2022-12-05T10:16:17;6.90;92.70
2441;DHT22;1231;53.988;9.470;2022-12-05T10:18:57;7.00;92.60
2441;DHT22;1231;53.988;9.470;2022-12-05T10:24:42;7.00;92.70
2441;DHT22;1231;53.988;9.470;2022-12-05T10:27:18;7.00;92.50
2441;DHT22;1231;53.988;9.470;2022-12-05T10:30:00;7.00;92.60
2441;DHT22;1231;53.988;9.470;2022-12-05T10:35:24;7.10;92.50
2441;DHT22;1231;53.988;9.470;2022-12-05T10:38:02;7.10;92.40
2441;DHT22;1231;53.988;9.470;2022-12-05T10:40:36;7.00;92.50
2441;DHT22;1231;53.988;9.470;2022-12-05T10:43:10;7.10;92.50
2441;DHT22;1231;53.988;9.470;2022-12-05T10:45:44;7.10;92.40
2441;DHT22;1231;53.988;9.470;2022-12-05T10:48:17;7.10;92.50
2441;DHT22;1231;53.988;9.470;2022-12-05T10:50:50;7.10;92.30
2441;DHT22;1231;53.988;9.470;2022-12-05T10:53:28;7.10;92.20
2441;DHT22;1231;53.988;9.470;2022-12-05T10:56:02;7.10;92.10
2441;DHT22;1231;53.988;9.470;2022-12-05T10:58:33;7.00;92.00
2441;DHT22;1231;53.988;9.470;2022-12-05T11:01:08;7.00;92.10
2441;DHT22;1231;53.988;9.470;2022-12-05T11:03:40;7.00;92.10
2441;DHT22;1231;53.988;9.470;2022-12-05T11:06:27;6.90;92.20
2441;DHT22;1231;53.988;9.470;2022-12-05T11:09:03;6.90;92.20
2441;DHT22;1231;53.988;9.470;2022-12-05T11:11:34;6.90;92.30
2441;DHT22;1231;53.988;9.470;2022-12-05T11:14:22;6.90;92.30
2441;DHT22;1231;53.988;9.470;2022-12-05T11:16:56;6.90;92.30
2441;DHT22;1231;53.988;9.470;2022-12-05T11:19:37;6.90;92.40
2441;DHT22;1231;53.988;9.470;2022-12-05T11:22:16;6.90;92.30
2441;DHT22;1231;53.988;9.470;2022-12-05T11:24:47;6.90;92.10
2441;DHT22;1231;53.988;9.470;2022-12-05T11:27:28;6.90;92.10
2441;DHT22;1231;53.988;9.470;2022-12-05T11:32:32;6.90;92.20
2441;DHT22;1231;53.988;9.470;2022-12-05T11:37:57;6.80;92.30
2441;DHT22;1231;53.988;9.470;2022-12-05T11:40:52;6.80;92.20
2441;DHT22;1231;53.988;9.470;2022-12-05T11:43:37;6.80;92.20
2441;DHT22;1231;53.988;9.470;2022-12-05T11:53:11;6.80;92.30
2441;DHT22;1231;53.988;9.470;2022-12-05T11:55:28;6.80;92.20
2441;DHT22;1231;53.988;9.470;2022-12-05T12:04:31;6.80;92.40
2441;DHT22;1231;53.988;9.470;2022-12-05T12:18:23;6.80;92.30
2441;DHT22;1231;53.988;9.470;2022-12-05T12:38:00;6.70;92.40
2441;DHT22;1231;53.988;9.470;2022-12-05T12:43:44;6.70;92.40
2441;DHT22;1231;53.988;9.470;2022-12-05T12:46:21;6.80;92.20
2441;DHT22;1231;53.988;9.470;2022-12-05T12:51:46;6.80;92.10
2441;DHT22;1231;53.988;9.470;2022-12-05T12:57:20;6.80;92.10
2441;DHT22;1231;53.988;9.470;2022-12-05T13:00:19;6.80;92.10
2441;DHT22;1231;53.988;9.470;2022-12-05T13:03:01;6.80;92.10
2441;DHT22;1231;53.988;9.470;2022-12-05T13:05:43;6.80;92.10
2441;DHT22;1231;53.988;9.470;2022-12-05T13:08:40;6.80;92.10
2441;DHT22;1231;53.988;9.470;2022-12-05T13:11:13;6.80;92.10
2441;DHT22;1231;53.988;9.470;2022-12-05T13:13:53;6.80;92.10
2441;DHT22;1231;53.988;9.470;2022-12-05T13:16:32;6.90;91.90
2441;DHT22;1231;53.988;9.470;2022-12-05T13:19:05;6.90;91.90
2441;DHT22;1231;53.988;9.470;2022-12-05T13:21:36;6.90;91.80
2441;DHT22;1231;53.988;9.470;2022-12-05T13:24:10;6.80;91.80
2441;DHT22;1231;53.988;9.470;2022-12-05T13:26:47;6.90;91.80
2441;DHT22;1231;53.988;9.470;2022-12-05T13:29:24;6.90;91.70
2441;DHT22;1231;53.988;9.470;2022-12-05T13:31:56;6.90;91.70
2441;DHT22;1231;53.988;9.470;2022-12-05T13:34:43;6.90;91.70
2441;DHT22;1231;53.988;9.470;2022-12-05T13:40:49;6.90;91.80
2441;DHT22;1231;53.988;9.470;2022-12-05T13:43:47;6.90;91.70
2441;DHT22;1231;53.988;9.470;2022-12-05T13:46:26;6.90;91.70
2441;DHT22;1231;53.988;9.470;2022-12-05T13:49:04;7.00;91.70
2441;DHT22;1231;53.988;9.470;2022-12-05T13:51:37;7.00;91.50
2441;DHT22;1231;53.988;9.470;2022-12-05T13:54:28;7.00;91.40
2441;DHT22;1231;53.988;9.470;2022-12-05T13:57:01;7.00;91.40
2441;DHT22;1231;53.988;9.470;2022-12-05T14:07:55;7.00;91.20
2441;DHT22;1231;53.988;9.470;2022-12-05T14:15:44;7.00;91.20
2441;DHT22;1231;53.988;9.470;2022-12-05T14:18:33;7.00;91.00
2441;DHT22;1231;53.988;9.470;2022-12-05T14:21:59;7.00;91.10
2441;DHT22;1231;53.988;9.470;2022-12-05T14:27:06;7.00;91.00
2441;DHT22;1231;53.988;9.470;2022-12-05T14:29:46;7.00;91.00
2441;DHT22;1231;53.988;9.470;2022-12-05T14:32:22;7.00;91.00
2441;DHT22;1231;53.988;9.470;2022-12-05T14:37:35;7.00;91.00
2441;DHT22;1231;53.988;9.470;2022-12-05T14:43:02;7.00;91.10
2441;DHT22;1231;53.988;9.470;2022-12-05T14:46:22;7.10;91.10
2441;DHT22;1231;53.988;9.470;2022-12-05T14:48:28;7.10;91.10
2441;DHT22;1231;53.988;9.470;2022-12-05T14:51:00;7.10;90.80
2441;DHT22;1231;53.988;9.470;2022-12-05T14:53:34;7.10;90.70
2441;DHT22;1231;53.988;9.470;2022-12-05T14:56:18;7.10;90.70
2441;DHT22;1231;53.988;9.470;2022-12-05T15:06:46;7.10;90.70
2441;DHT22;1231;53.988;9.470;2022-12-05T15:12:44;7.10;90.80
2441;DHT22;1231;53.988;9.470;2022-12-05T15:18:39;7.10;90.50
2441;DHT22;1231;53.988;9.470;2022-12-05T15:21:38;7.00;90.50
2441;DHT22;1231;53.988;9.470;2022-12-05T15:24:18;6.90;90.60
2441;DHT22;1231;53.988;9.470;2022-12-05T15:26:50;6.90;90.80
2441;DHT22;1231;53.988;9.470;2022-12-05T15:32:02;6.80;91.00
2441;DHT22;1231;53.988;9.470;2022-12-05T15:34:59;6.70;91.40
2441;DHT22;1231;53.988;9.470;2022-12-05T15:37:56;6.70;91.40
2441;DHT22;1231;53.988;9.470;2022-12-05T15:40:33;6.60;91.50
2441;DHT22;1231;53.988;9.470;2022-12-05T15:46:20;6.50;91.80
2441;DHT22;1231;53.988;9.470;2022-12-05T15:48:56;6.50;91.90
2441;DHT22;1231;53.988;9.470;2022-12-05T15:51:36;6.40;91.90
2441;DHT22;1231;53.988;9.470;2022-12-05T15:54:12;6.50;92.10
2441;DHT22;1231;53.988;9.470;2022-12-05T15:57:06;6.40;92.10
2441;DHT22;1231;53.988;9.470;2022-12-05T15:59:42;6.40;92.20
2441;DHT22;1231;53.988;9.470;2022-12-05T16:02:23;6.30;92.40
2441;DHT22;1231;53.988;9.470;2022-12-05T16:04:56;6.40;92.40
2441;DHT22;1231;53.988;9.470;2022-12-05T16:07:29;6.40;92.40
2441;DHT22;1231;53.988;9.470;2022-12-05T16:10:00;6.40;92.40
2441;DHT22;1231;53.988;9.470;2022-12-05T16:12:38;6.40;92.40
2441;DHT22;1231;53.988;9.470;2022-12-05T16:15:26;6.40;92.40
2441;DHT22;1231;53.988;9.470;2022-12-05T16:18:01;6.30;92.40
2441;DHT22;1231;53.988;9.470;2022-12-05T16:20:33;6.30;92.60
2441;DHT22;1231;53.988;9.470;2022-12-05T16:23:25;6.30;92.60
2441;DHT22;1231;53.988;9.470;2022-12-05T16:28:41;6.30;92.60
2441;DHT22;1231;53.988;9.470;2022-12-05T16:31:26;6.30;92.70
2441;DHT22;1231;53.988;9.470;2022-12-05T16:34:05;6.30;92.60
2441;DHT22;1231;53.988;9.470;2022-12-05T16:36:45;6.30;92.60
2441;DHT22;1231;53.988;9.470;2022-12-05T16:39:16;6.40;92.70
2441;DHT22;1231;53.988;9.470;2022-12-05T16:41:48;6.40;92.60
2441;DHT22;1231;53.988;9.470;2022-12-05T16:47:22;6.40;92.50
2441;DHT22;1231;53.988;9.470;2022-12-05T16:49:53;6.40;92.40
2441;DHT22;1231;53.988;9.470;2022-12-05T16:52:29;6.40;92.40
2441;DHT22;1231;53.988;9.470;2022-12-05T16:55:00;6.30;92.60
2441;DHT22;1231;53.988;9.470;2022-12-05T16:57:30;6.30;92.60
2441;DHT22;1231;53.988;9.470;2022-12-05T17:00:01;6.40;92.60
2441;DHT22;1231;53.988;9.470;2022-12-05T17:02:35;6.40;92.70
2441;DHT22;1231;53.988;9.470;2022-12-05T17:05:12;6.40;92.40
2441;DHT22;1231;53.988;9.470;2022-12-05T17:07:43;6.40;92.50
2441;DHT22;1231;53.988;9.470;2022-12-05T17:10:13;6.40;92.50
2441;DHT22;1231;53.988;9.470;2022-12-05T17:12:44;6.40;92.50
2441;DHT22;1231;53.988;9.470;2022-12-05T17:15:16;6.40;92.50
2441;DHT22;1231;53.988;9.470;2022-12-05T17:17:47;6.50;92.40
2441;DHT22;1231;53.988;9.470;2022-12-05T17:20:18;6.40;92.30
2441;DHT22;1231;53.988;9.470;2022-12-05T17:22:48;6.50;92.20
2441;DHT22;1231;53.988;9.470;2022-12-05T17:25:31;6.40;92.30
2441;DHT22;1231;53.988;9.470;2022-12-05T17:28:05;6.40;92.30
2441;DHT22;1231;53.988;9.470;2022-12-05T17:30:36;6.40;92.40
2441;DHT22;1231;53.988;9.470;2022-12-05T17:33:15;6.40;92.50
2441;DHT22;1231;53.988;9.470;2022-12-05T17:35:47;6.40;92.50
2441;DHT22;1231;53.988;9.470;2022-12-05T17:38:18;6.30;92.50
2441;DHT22;1231;53.988;9.470;2022-12-05T17:40:48;6.40;92.60
2441;DHT22;1231;53.988;9.470;2022-12-05T17:43:19;6.30;92.60
2441;DHT22;1231;53.988;9.470;2022-12-05T17:45:50;6.40;92.60
2441;DHT22;1231;53.988;9.470;2022-12-05T17:48:20;6.30;92.70
2441;DHT22;1231;53.988;9.470;2022-12-05T17:50:51;6.30;92.70
2441;DHT22;1231;53.988;9.470;2022-12-05T17:53:22;6.30;92.80
2441;DHT22;1231;53.988;9.470;2022-12-05T17:55:53;6.30;92.90
2441;DHT22;1231;53.988;9.470;2022-12-05T17:58:24;6.30;92.90
2441;DHT22;1231;53.988;9.470;2022-12-05T18:00:54;6.30;92.90
2441;DHT22;1231;53.988;9.470;2022-12-05T18:03:25;6.30;93.00
2441;DHT22;1231;53.988;9.470;2022-12-05T18:05:56;6.30;92.90
2441;DHT22;1231;53.988;9.470;2022-12-05T18:08:26;6.30;93.00
2441;DHT22;1231;53.988;9.470;2022-12-05T18:10:58;6.30;93.00
2441;DHT22;1231;53.988;9.470;2022-12-05T18:13:28;6.30;93.00
2441;DHT22;1231;53.988;9.470;2022-12-05T18:15:59;6.30;93.00
2441;DHT22;1231;53.988;9.470;2022-12-05T18:18:30;6.30;92.90
2441;DHT22;1231;53.988;9.470;2022-12-05T18:23:35;6.30;92.90
2441;DHT22;1231;53.988;9.470;2022-12-05T18:26:08;6.30;93.00
2441;DHT22;1231;53.988;9.470;2022-12-05T18:28:39;6.30;92.80
2441;DHT22;1231;53.988;9.470;2022-12-05T18:31:12;6.30;92.90
2441;DHT22;1231;53.988;9.470;2022-12-05T18:33:45;6.30;92.90
2441;DHT22;1231;53.988;9.470;2022-12-05T18:36:18;6.30;92.90
2441;DHT22;1231;53.988;9.470;2022-12-05T18:38:53;6.20;92.90
2441;DHT22;1231;53.988;9.470;2022-12-05T18:41:24;6.30;92.90
2441;DHT22;1231;53.988;9.470;2022-12-05T18:43:58;6.30;92.80
2441;DHT22;1231;53.988;9.470;2022-12-05T18:46:28;6.30;92.90
2441;DHT22;1231;53.988;9.470;2022-12-05T18:48:59;6.30;92.90
2441;DHT22;1231;53.988;9.470;2022-12-05T18:51:30;6.30;92.90
2441;DHT22;1231;53.988;9.470;2022-12-05T18:54:00;6.30;92.80
2441;DHT22;1231;53.988;9.470;2022-12-05T18:56:33;6.30;92.80
2441;DHT22;1231;53.988;9.470;2022-12-05T18:59:12;6.30;92.70
2441;DHT22;1231;53.988;9.470;2022-12-05T19:01:43;6.30;92.80
2441;DHT22;1231;53.988;9.470;2022-12-05T19:04:17;6.30;92.50
2441;DHT22;1231;53.988;9.470;2022-12-05T19:06:50;6.30;92.50
2441;DHT22;1231;53.988;9.470;2022-12-05T19:09:24;6.30;92.70
2441;DHT22;1231;53.988;9.470;2022-12-05T19:11:57;6.30;92.50
2441;DHT22;1231;53.988;9.470;2022-12-05T19:14:29;6.30;92.60
2441;DHT22;1231;53.988;9.470;2022-12-05T19:17:02;6.30;92.50
2441;DHT22;1231;53.988;9.470;2022-12-05T19:19:33;6.30;92.80
2441;DHT22;1231;53.988;9.470;2022-12-05T19:22:03;6.30;92.60
2441;DHT22;1231;53.988;9.470;2022-12-05T19:24:34;6.20;92.70
2441;DHT22;1231;53.988;9.470;2022-12-05T19:27:06;6.20;92.80
2441;DHT22;1231;53.988;9.470;2022-12-05T19:29:36;6.20;93.00
2441;DHT22;1231;53.988;9.470;2022-12-05T19:32:07;6.20;92.70
2441;DHT22;1231;53.988;9.470;2022-12-05T19:34:38;6.20;92.80
2441;DHT22;1231;53.988;9.470;2022-12-05T19:37:08;6.20;92.80
2441;DHT22;1231;53.988;9.470;2022-12-05T19:39:39;6.20;92.80
2441;DHT22;1231;53.988;9.470;2022-12-05T19:42:09;6.20;92.80
2441;DHT22;1231;53.988;9.470;2022-12-05T19:44:40;6.20;92.80
2441;DHT22;1231;53.988;9.470;2022-12-05T19:47:11;6.20;92.90
2441;DHT22;1231;53.988;9.470;2022-12-05T19:49:41;6.30;92.90